Tiger, Georgia
Current Conditions -  °F | °C
As of 3:35 AM on Sunday 26 Oct 2014 (Local Time) from KTOC Reporting Station
Clear Clear  
Wind Chill: 57°   Ceiling: Unl
Heat Index: 57°   Visibility: 10mi
Dew Point: 53°   Wind: 3mph
Humidity: 85%   Direction: 320°NW
Pressure: 29.96"   Gusts: NA
Location:  34.85°N, 83.43°W
Report Text: KTOC 260735Z AUTO 32003KT 10SM CLR 14/11 A2996 RMK AO2 T01380114
Loading
Personal Weather Stations






























Interactive Weather Map
Tropical Storm Tracking
New forecast layout! Learn more

10-Day Weather Forecast

Advertisements
Track Severe Weather on mobile